Terminal Aerodrome Forecast
Issued by NWS Austin/San Antonio, TX

Home | Current Version | Previous Version | Text Only | Print | Product List | Glossary On
Versions: 1 2 3 4 5 6 7 8 9 10 11 12 13 14 15 16 17 18
000
FTUS44 KEWX 161100
TAFDRT
TAF
KDRT 161138Z 1612/1712 12010KT P6SM SKC
     FM161500 14015G25KT P6SM SCT250
     FM170000 12011KT P6SM SCT250
     FM170800 12010KT P6SM OVC015=

USA.gov is the U.S. government's official web portal to all federal, state and local government web resources and services.